createdAt,value
2019-01-26T00:00:25.074Z,64.66
2019-01-26T00:02:53.602Z,66.43
2019-01-26T00:05:20.319Z,67.54
2019-01-26T00:07:46.635Z,67.63
2019-01-26T00:10:13.071Z,67.19
2019-01-26T00:12:39.673Z,66.93
2019-01-26T00:15:09.597Z,67.19
2019-01-26T00:17:35.926Z,66.36
2019-01-26T00:20:06.326Z,66.28
2019-01-26T00:22:32.715Z,66.07
2019-01-26T00:24:59.104Z,65.68
2019-01-26T00:27:25.493Z,64.89
2019-01-26T00:29:52.131Z,65.01
2019-01-26T00:32:18.774Z,64.28
2019-01-26T00:34:46.610Z,64.40
2019-01-26T00:37:12.941Z,63.98
2019-01-26T00:39:39.254Z,63.78
2019-01-26T00:42:05.574Z,63.58
2019-01-26T00:44:31.889Z,63.21
2019-01-26T00:46:58.222Z,62.89
2019-01-26T00:49:24.810Z,62.57
2019-01-26T00:51:51.145Z,62.18
2019-01-26T00:54:17.449Z,61.83
2019-01-26T00:56:43.812Z,61.20
2019-01-26T00:59:10.202Z,60.65
2019-01-26T01:01:36.807Z,60.42
2019-01-26T01:04:03.830Z,59.64
2019-01-26T01:06:30.473Z,59.20
2019-01-26T01:08:56.806Z,59.01
2019-01-26T01:11:23.330Z,58.75
2019-01-26T01:13:49.930Z,58.58
2019-01-26T01:16:16.219Z,58.26
2019-01-26T01:18:42.561Z,57.82
2019-01-26T01:21:09.245Z,57.60
2019-01-26T01:23:35.688Z,58.16
2019-01-26T01:26:02.286Z,57.37
2019-01-26T01:28:28.589Z,56.77
2019-01-26T01:30:54.946Z,56.73
2019-01-26T01:33:21.305Z,56.72
2019-01-26T01:35:47.932Z,56.70
2019-01-26T01:38:14.362Z,56.77
2019-01-26T01:40:41.067Z,57.55
2019-01-26T01:43:07.655Z,57.25
2019-01-26T01:45:33.992Z,57.47
2019-01-26T01:48:00.320Z,57.52
2019-01-26T01:50:26.901Z,57.44
2019-01-26T01:52:53.513Z,57.60
2019-01-26T01:55:20.069Z,57.26
2019-01-26T01:57:46.406Z,57.09
2019-01-26T02:00:20.305Z,57.05
2019-01-26T02:02:47.005Z,56.81
2019-01-26T02:05:13.598Z,57.34
2019-01-26T02:07:39.913Z,56.50
2019-01-26T02:10:10.331Z,57.14
2019-01-26T02:12:36.895Z,57.03
2019-01-26T02:15:06.229Z,56.38
2019-01-26T02:17:32.812Z,57.03
2019-01-26T02:19:59.393Z,57.10
2019-01-26T02:22:26.072Z,56.95
2019-01-26T02:24:52.681Z,57.08
2019-01-26T02:27:19.374Z,56.75
2019-01-26T02:29:45.724Z,56.92
2019-01-26T02:32:12.057Z,56.85
2019-01-26T02:34:38.684Z,56.07
2019-01-26T02:37:05.010Z,56.72
2019-01-26T02:39:31.344Z,56.80
2019-01-26T02:41:57.645Z,57.11
2019-01-26T02:44:24.351Z,57.74
2019-01-26T02:46:57.793Z,58.26
2019-01-26T02:49:18.935Z,58.82
2019-01-26T02:51:45.496Z,60.45
2019-01-26T02:54:11.828Z,62.30
2019-01-26T02:56:38.192Z,63.31
2019-01-26T02:59:04.931Z,66.03
2019-01-26T03:01:31.210Z,67.97
2019-01-26T03:03:57.590Z,69.15
2019-01-26T03:06:23.919Z,70.14
2019-01-26T03:08:50.451Z,71.06
2019-01-26T03:11:17.068Z,71.33
2019-01-26T03:13:43.446Z,72.11
2019-01-26T03:16:10.150Z,72.89
2019-01-26T03:18:36.529Z,73.03
2019-01-26T03:21:02.922Z,73.73
2019-01-26T03:23:29.536Z,73.94
2019-01-26T03:25:55.862Z,74.13
2019-01-26T03:28:23.196Z,73.98
2019-01-26T03:30:49.537Z,73.57
2019-01-26T03:33:15.847Z,73.43
2019-01-26T03:35:42.189Z,74.13
2019-01-26T03:38:08.486Z,73.59
2019-01-26T03:40:34.795Z,73.90
2019-01-26T03:43:01.083Z,73.67
2019-01-26T03:45:27.391Z,73.05
2019-01-26T03:47:53.743Z,73.10
2019-01-26T03:50:21.042Z,73.25
2019-01-26T03:52:47.654Z,73.85
2019-01-26T03:55:19.811Z,73.58
2019-01-26T03:57:46.437Z,74.06
2019-01-26T04:00:20.169Z,74.23
2019-01-26T04:02:46.481Z,74.61
2019-01-26T04:05:13.024Z,75.18
2019-01-26T04:07:39.351Z,75.23
2019-01-26T04:10:09.499Z,74.09
2019-01-26T04:12:36.181Z,72.89
2019-01-26T04:15:07.119Z,72.67
2019-01-26T04:17:34.684Z,72.21
2019-01-26T04:20:01.769Z,71.55
2019-01-26T04:22:28.168Z,71.19
2019-01-26T04:24:54.532Z,73.53
2019-01-26T04:27:21.149Z,73.83
2019-01-26T04:29:47.775Z,74.83
2019-01-26T04:32:14.097Z,75.43
2019-01-26T04:34:40.441Z,74.74
2019-01-26T04:37:07.009Z,75.84
2019-01-26T04:39:33.588Z,75.18
2019-01-26T04:41:59.919Z,75.66
2019-01-26T04:44:26.225Z,75.59
2019-01-26T04:46:52.551Z,74.20
2019-01-26T04:49:19.136Z,73.34
2019-01-26T04:51:45.733Z,72.82
2019-01-26T04:54:12.284Z,74.07
2019-01-26T04:56:38.645Z,73.25
2019-01-26T04:59:04.951Z,72.38
2019-01-26T05:01:31.291Z,71.42
2019-01-26T05:03:57.878Z,72.99
2019-01-26T05:06:24.452Z,73.71
2019-01-26T05:08:50.829Z,74.30
2019-01-26T05:11:17.197Z,72.77
2019-01-26T05:13:43.786Z,73.04
2019-01-26T05:16:10.105Z,74.62
2019-01-26T05:18:36.423Z,74.89
2019-01-26T05:21:02.948Z,75.19
2019-01-26T05:23:29.509Z,75.38
2019-01-26T05:25:55.839Z,75.06
2019-01-26T05:28:22.399Z,75.32
2019-01-26T05:30:48.743Z,74.57
2019-01-26T05:33:15.043Z,75.82
2019-01-26T05:35:41.414Z,76.73
2019-01-26T05:38:08.080Z,77.50
2019-01-26T05:40:34.691Z,77.93
2019-01-26T05:43:01.283Z,77.78
2019-01-26T05:45:27.885Z,77.44
2019-01-26T05:47:54.473Z,76.49
2019-01-26T05:50:23.392Z,77.13
2019-01-26T05:52:49.929Z,76.98
2019-01-26T05:55:16.239Z,76.61
2019-01-26T05:57:42.858Z,76.45
2019-01-26T06:00:17.432Z,76.67
2019-01-26T06:02:43.752Z,76.47
2019-01-26T06:05:10.279Z,76.74
2019-01-26T06:07:36.924Z,77.52
2019-01-26T06:10:06.434Z,77.69
2019-01-26T06:12:32.765Z,77.71
2019-01-26T06:14:59.078Z,78.88
2019-01-26T06:17:25.639Z,79.55
2019-01-26T06:19:52.179Z,78.84
2019-01-26T06:22:18.742Z,78.45
2019-01-26T06:24:45.073Z,78.25
2019-01-26T06:27:11.402Z,77.82
2019-01-26T06:29:37.826Z,76.96
2019-01-26T06:32:04.155Z,76.48
2019-01-26T06:34:30.483Z,76.66
2019-01-26T06:36:56.799Z,76.41
2019-01-26T06:39:23.161Z,76.90
2019-01-26T06:41:49.509Z,77.19
2019-01-26T06:44:15.826Z,76.82
2019-01-26T06:46:42.457Z,76.33
2019-01-26T06:49:09.219Z,75.82
2019-01-26T06:51:35.823Z,75.29
2019-01-26T06:54:02.427Z,75.33
2019-01-26T06:56:29.006Z,74.94
2019-01-26T06:58:55.350Z,74.42
2019-01-26T07:01:25.798Z,75.15
2019-01-26T07:03:52.115Z,75.11
2019-01-26T07:06:20.573Z,75.49
2019-01-26T07:08:48.300Z,75.01
2019-01-26T07:11:14.609Z,74.03
2019-01-26T07:13:41.680Z,74.49
2019-01-26T07:16:08.092Z,75.12
2019-01-26T07:18:34.691Z,74.40
2019-01-26T07:21:01.082Z,74.67
2019-01-26T07:23:27.618Z,74.29
2019-01-26T07:25:54.212Z,74.34
2019-01-26T07:28:21.567Z,74.30
2019-01-26T07:30:48.164Z,74.54
2019-01-26T07:33:14.533Z,74.11
2019-01-26T07:35:41.172Z,74.51
2019-01-26T07:38:13.481Z,74.18
2019-01-26T07:40:36.008Z,74.16
2019-01-26T07:43:02.341Z,73.73
2019-01-26T07:45:28.759Z,73.80
2019-01-26T07:47:55.184Z,74.48
2019-01-26T07:50:24.785Z,74.47
2019-01-26T07:52:51.522Z,74.40
2019-01-26T07:55:19.150Z,74.33
2019-01-26T07:57:45.635Z,74.45
2019-01-26T08:00:17.149Z,74.78
2019-01-26T08:02:43.518Z,74.78
2019-01-26T08:05:10.808Z,75.09
2019-01-26T08:07:37.513Z,75.95
2019-01-26T08:10:09.465Z,76.05
2019-01-26T08:12:36.058Z,76.25
2019-01-26T08:15:07.385Z,76.12
2019-01-26T08:17:34.000Z,75.85
2019-01-26T08:20:00.625Z,76.94
2019-01-26T08:22:27.324Z,76.80
2019-01-26T08:24:53.938Z,77.49
2019-01-26T08:27:20.256Z,77.56
2019-01-26T08:29:46.578Z,78.43
2019-01-26T08:32:13.141Z,79.31
2019-01-26T08:34:39.747Z,79.39
2019-01-26T08:37:06.189Z,79.44
2019-01-26T08:39:32.518Z,80.33
2019-01-26T08:41:59.085Z,79.98
2019-01-26T08:44:25.677Z,81.06
2019-01-26T08:46:52.306Z,80.48
2019-01-26T08:49:18.664Z,80.93
2019-01-26T08:51:44.987Z,81.05
2019-01-26T08:54:11.309Z,80.87
2019-01-26T08:56:37.663Z,81.09
2019-01-26T08:59:04.120Z,81.23
2019-01-26T09:01:30.447Z,80.79
2019-01-26T09:04:04.929Z,81.02
2019-01-26T09:06:32.181Z,81.14
2019-01-26T09:08:58.829Z,80.70
2019-01-26T09:11:25.258Z,80.55
2019-01-26T09:13:51.588Z,80.92
2019-01-26T09:16:17.915Z,81.09
2019-01-26T09:18:44.286Z,80.77
2019-01-26T09:21:11.021Z,80.48
2019-01-26T09:23:37.372Z,79.83
2019-01-26T09:26:03.996Z,79.10
2019-01-26T09:28:30.608Z,79.25
2019-01-26T09:30:56.951Z,79.25
2019-01-26T09:33:23.517Z,79.59
2019-01-26T09:35:49.851Z,79.23
2019-01-26T09:38:16.145Z,78.75
2019-01-26T09:40:42.736Z,78.40
2019-01-26T09:43:09.330Z,78.51
2019-01-26T09:45:36.013Z,78.38
2019-01-26T09:48:03.682Z,77.86
2019-01-26T09:50:30.253Z,77.47
2019-01-26T09:52:56.647Z,77.08
2019-01-26T09:55:23.011Z,77.59
2019-01-26T09:57:49.640Z,76.28
2019-01-26T10:00:24.199Z,76.63
2019-01-26T10:02:50.542Z,76.47
2019-01-26T10:05:17.712Z,76.07
2019-01-26T10:07:44.036Z,76.65
2019-01-26T10:10:15.548Z,76.87
2019-01-26T10:12:41.939Z,76.84
2019-01-26T10:15:13.615Z,76.47
2019-01-26T10:17:45.727Z,76.84
2019-01-26T10:20:16.840Z,77.49
2019-01-26T10:22:43.435Z,77.65
2019-01-26T10:25:12.778Z,76.97
2019-01-26T10:27:39.171Z,76.39
2019-01-26T10:30:14.277Z,76.05
2019-01-26T10:32:40.600Z,76.82
2019-01-26T10:35:07.223Z,77.37
2019-01-26T10:37:33.690Z,76.20
2019-01-26T10:40:00.529Z,75.89
2019-01-26T10:42:27.251Z,75.52
2019-01-26T10:44:54.194Z,75.93
2019-01-26T10:47:21.341Z,76.79
2019-01-26T10:49:47.998Z,76.13
2019-01-26T10:52:14.331Z,76.42
2019-01-26T10:54:40.905Z,76.25
2019-01-26T10:57:07.373Z,76.51
2019-01-26T10:59:33.959Z,76.51
2019-01-26T11:02:00.324Z,76.41
2019-01-26T11:04:26.626Z,75.94
2019-01-26T11:06:53.196Z,76.78
2019-01-26T11:09:19.540Z,75.96
2019-01-26T11:11:46.138Z,75.13
2019-01-26T11:14:12.509Z,75.98
2019-01-26T11:16:39.112Z,76.06
2019-01-26T11:19:08.045Z,75.87
2019-01-26T11:21:34.024Z,75.91
2019-01-26T11:24:00.563Z,75.08
2019-01-26T11:26:27.188Z,74.52
2019-01-26T11:28:53.478Z,74.40
2019-01-26T11:31:20.417Z,74.25
2019-01-26T11:33:46.728Z,74.10
2019-01-26T11:36:13.833Z,73.18
2019-01-26T11:38:40.210Z,73.21
2019-01-26T11:41:06.632Z,72.25
2019-01-26T11:43:32.941Z,71.96
2019-01-26T11:46:21.613Z,72.15
2019-01-26T11:48:48.004Z,71.59
2019-01-26T11:51:16.214Z,71.18
2019-01-26T11:53:42.859Z,70.78
2019-01-26T11:56:14.339Z,69.23
2019-01-26T11:58:41.078Z,67.72
2019-01-26T12:01:12.234Z,67.56
2019-01-26T12:03:40.812Z,67.74
2019-01-26T12:06:11.936Z,67.90
2019-01-26T12:08:38.278Z,67.98
2019-01-26T12:11:04.852Z,66.49
2019-01-26T12:13:31.467Z,66.03
2019-01-26T12:15:58.316Z,66.24
2019-01-26T12:18:24.750Z,65.17
2019-01-26T12:20:51.088Z,65.56
2019-01-26T12:23:17.737Z,66.85
2019-01-26T12:25:44.023Z,67.06
2019-01-26T12:28:10.376Z,67.99
2019-01-26T12:30:36.684Z,67.03
2019-01-26T12:33:03.276Z,66.30
2019-01-26T12:35:30.494Z,68.98
2019-01-26T12:37:57.328Z,69.83
2019-01-26T12:40:23.654Z,68.66
2019-01-26T12:42:50.218Z,69.51
2019-01-26T12:45:19.738Z,70.27
2019-01-26T12:47:46.075Z,69.91
2019-01-26T12:50:12.605Z,69.96
2019-01-26T12:52:40.610Z,68.59
2019-01-26T12:55:12.129Z,71.77
2019-01-26T12:57:38.439Z,72.78
2019-01-26T13:00:10.822Z,70.91
2019-01-26T13:02:37.458Z,69.47
2019-01-26T13:05:06.193Z,69.42
2019-01-26T13:07:32.571Z,69.59
2019-01-26T13:09:59.227Z,71.20
2019-01-26T13:12:25.525Z,72.15
2019-01-26T13:14:52.442Z,72.91
2019-01-26T13:17:18.775Z,74.26
2019-01-26T13:19:45.224Z,74.62
2019-01-26T13:22:12.207Z,74.34
2019-01-26T13:24:38.790Z,74.21
2019-01-26T13:27:05.170Z,74.61
2019-01-26T13:29:31.540Z,74.48
2019-01-26T13:31:58.195Z,74.59
2019-01-26T13:34:24.515Z,74.54
2019-01-26T13:36:51.109Z,75.30
2019-01-26T13:39:17.448Z,75.53
2019-01-26T13:41:43.765Z,75.88
2019-01-26T13:44:10.284Z,75.79
2019-01-26T13:46:38.807Z,76.58
2019-01-26T13:49:05.472Z,76.73
2019-01-26T13:51:32.380Z,77.59
2019-01-26T13:53:59.154Z,77.02
2019-01-26T13:56:25.464Z,77.11
2019-01-26T13:58:52.022Z,77.42
2019-01-26T14:01:18.424Z,77.96
2019-01-26T14:03:45.029Z,77.68
2019-01-26T14:06:11.632Z,77.53
2019-01-26T14:08:37.965Z,77.38
2019-01-26T14:11:04.476Z,77.20
2019-01-26T14:13:30.901Z,78.01
2019-01-26T14:15:57.230Z,78.19
2019-01-26T14:18:23.810Z,78.10
2019-01-26T14:20:50.378Z,77.76
2019-01-26T14:23:16.728Z,77.19
2019-01-26T14:25:43.321Z,78.25
2019-01-26T14:28:09.636Z,78.08
2019-01-26T14:30:40.787Z,77.34
2019-01-26T14:33:07.375Z,77.84
2019-01-26T14:35:33.753Z,77.93
2019-01-26T14:38:00.162Z,77.98
2019-01-26T14:40:26.482Z,79.41
2019-01-26T14:42:54.306Z,79.32
2019-01-26T14:45:21.376Z,79.34
2019-01-26T14:47:47.693Z,79.97
2019-01-26T14:50:16.476Z,79.37
2019-01-26T14:52:43.271Z,79.34
2019-01-26T14:55:23.670Z,79.91
2019-01-26T14:57:50.232Z,80.45
2019-01-26T15:00:27.633Z,80.67
2019-01-26T15:02:54.125Z,81.22
2019-01-26T15:05:20.616Z,80.99
2019-01-26T15:07:47.349Z,81.40
2019-01-26T15:10:14.054Z,81.71
2019-01-26T15:12:40.510Z,81.61
2019-01-26T15:15:11.711Z,81.80
2019-01-26T15:17:38.618Z,81.10
2019-01-26T15:20:11.109Z,81.40
2019-01-26T15:22:37.766Z,80.97
2019-01-26T15:25:07.363Z,81.10
2019-01-26T15:27:34.923Z,81.18
2019-01-26T15:30:01.699Z,81.04
2019-01-26T15:32:29.342Z,80.86
2019-01-26T15:34:55.682Z,80.86
2019-01-26T15:37:22.258Z,80.49
2019-01-26T15:39:48.831Z,80.80
2019-01-26T15:42:15.411Z,81.32
2019-01-26T15:44:41.790Z,81.74
2019-01-26T15:47:08.227Z,81.59
2019-01-26T15:49:34.803Z,81.39
2019-01-26T15:52:01.124Z,81.71
2019-01-26T15:54:27.710Z,81.62
2019-01-26T15:56:53.998Z,81.38
2019-01-26T15:59:20.581Z,81.52
2019-01-26T16:01:46.914Z,81.95
2019-01-26T16:04:13.242Z,81.45
2019-01-26T16:06:39.549Z,81.71
2019-01-26T16:09:06.788Z,82.13
2019-01-26T16:11:34.221Z,82.63
2019-01-26T16:14:00.871Z,82.58
2019-01-26T16:16:27.505Z,82.10
2019-01-26T16:18:54.090Z,82.62
2019-01-26T16:21:20.692Z,82.36
2019-01-26T16:23:47.044Z,82.43
2019-01-26T16:26:13.677Z,82.59
2019-01-26T16:28:40.056Z,82.55
2019-01-26T16:31:06.641Z,82.87
2019-01-26T16:33:33.263Z,82.30
2019-01-26T16:35:59.638Z,81.56
2019-01-26T16:38:26.185Z,81.85
2019-01-26T16:40:52.874Z,81.71
2019-01-26T16:43:19.459Z,81.09
2019-01-26T16:45:46.104Z,81.94
2019-01-26T16:48:12.874Z,81.89
2019-01-26T16:50:39.229Z,81.36
2019-01-26T16:53:05.572Z,81.29
2019-01-26T16:55:31.979Z,81.38
2019-01-26T16:57:58.573Z,80.90
2019-01-26T17:00:32.615Z,81.54
2019-01-26T17:02:59.278Z,80.99
2019-01-26T17:05:26.103Z,81.19
2019-01-26T17:07:52.652Z,80.98
2019-01-26T17:10:20.742Z,81.11
2019-01-26T17:12:47.070Z,80.99
2019-01-26T17:15:13.826Z,80.59
2019-01-26T17:17:40.200Z,80.59
2019-01-26T17:20:21.019Z,80.77
2019-01-26T17:22:47.813Z,81.15
2019-01-26T17:25:14.186Z,80.38
2019-01-26T17:27:40.853Z,80.73
2019-01-26T17:30:12.354Z,80.94
2019-01-26T17:32:38.792Z,81.22
2019-01-26T17:35:08.805Z,80.70
2019-01-26T17:37:36.177Z,80.66
2019-01-26T17:40:13.079Z,81.19
2019-01-26T17:42:41.685Z,80.96
2019-01-26T17:45:10.723Z,80.74
2019-01-26T17:47:37.377Z,81.12
2019-01-26T17:50:10.187Z,81.26
2019-01-26T17:52:40.439Z,80.71
2019-01-26T17:55:09.156Z,80.55
2019-01-26T17:57:35.853Z,80.43
2019-01-26T18:00:23.403Z,80.37
2019-01-26T18:02:49.925Z,79.90
2019-01-26T18:05:16.614Z,80.18
2019-01-26T18:07:43.181Z,79.93
2019-01-26T18:10:14.933Z,79.87
2019-01-26T18:12:42.123Z,79.75
2019-01-26T18:15:12.739Z,79.97
2019-01-26T18:17:39.345Z,79.80
2019-01-26T18:20:11.080Z,79.61
2019-01-26T18:22:37.531Z,79.64
2019-01-26T18:25:07.308Z,79.64
2019-01-26T18:27:36.440Z,80.00
2019-01-26T18:30:08.626Z,80.09
2019-01-26T18:32:35.261Z,79.67
2019-01-26T18:35:02.940Z,79.10
2019-01-26T18:37:35.542Z,79.60
2019-01-26T18:40:05.071Z,79.34
2019-01-26T18:42:31.675Z,79.33
2019-01-26T18:44:58.283Z,78.96
2019-01-26T18:47:24.588Z,78.53
2019-01-26T18:49:50.944Z,79.12
2019-01-26T18:52:17.479Z,78.68
2019-01-26T18:54:44.176Z,78.30
2019-01-26T18:57:10.535Z,78.54
2019-01-26T18:59:37.097Z,78.70
2019-01-26T19:02:03.831Z,78.76
2019-01-26T19:04:31.638Z,78.92
2019-01-26T19:07:04.361Z,79.02
2019-01-26T19:09:31.203Z,78.87
2019-01-26T19:11:57.743Z,78.48
2019-01-26T19:14:24.773Z,79.02
2019-01-26T19:16:51.716Z,79.21
2019-01-26T19:19:18.058Z,79.56
2019-01-26T19:21:44.375Z,79.71
2019-01-26T19:24:11.002Z,79.51
2019-01-26T19:26:37.937Z,80.54
2019-01-26T19:29:04.454Z,80.84
2019-01-26T19:31:30.837Z,80.93
2019-01-26T19:33:57.273Z,80.65
2019-01-26T19:36:23.695Z,80.98
2019-01-26T19:38:50.055Z,80.66
2019-01-26T19:41:16.612Z,80.69
2019-01-26T19:43:42.950Z,80.11
2019-01-26T19:46:09.656Z,80.24
2019-01-26T19:48:36.295Z,79.93
2019-01-26T19:51:09.754Z,79.46
2019-01-26T19:53:32.322Z,79.40
2019-01-26T19:55:58.906Z,79.46
2019-01-26T19:58:25.747Z,79.69
2019-01-26T20:00:52.369Z,79.18
2019-01-26T20:03:19.961Z,79.06
2019-01-26T20:05:48.153Z,78.52
2019-01-26T20:08:14.794Z,78.82
2019-01-26T20:10:41.307Z,78.18
2019-01-26T20:13:07.905Z,78.40
2019-01-26T20:15:34.240Z,78.14
2019-01-26T20:18:00.802Z,77.94
2019-01-26T20:20:39.318Z,77.61
2019-01-26T20:23:05.690Z,77.87
2019-01-26T20:25:32.050Z,77.89
2019-01-26T20:27:58.491Z,77.47
2019-01-26T20:30:29.415Z,77.96
2019-01-26T20:32:55.848Z,77.95
2019-01-26T20:35:22.167Z,78.42
2019-01-26T20:37:48.769Z,78.31
2019-01-26T20:40:17.419Z,77.70
2019-01-26T20:42:44.531Z,77.49
2019-01-26T20:45:15.749Z,77.31
2019-01-26T20:47:42.049Z,77.41
2019-01-26T20:50:12.139Z,77.44
2019-01-26T20:52:38.654Z,77.07
2019-01-26T20:55:08.098Z,77.39
2019-01-26T20:57:34.677Z,77.08
2019-01-26T21:00:01.034Z,76.81
2019-01-26T21:02:27.723Z,76.55
2019-01-26T21:04:54.080Z,76.33
2019-01-26T21:07:20.714Z,76.47
2019-01-26T21:09:48.266Z,76.15
2019-01-26T21:12:14.629Z,76.09
2019-01-26T21:14:41.201Z,75.71
2019-01-26T21:17:07.568Z,75.56
2019-01-26T21:19:33.977Z,75.39
2019-01-26T21:22:00.317Z,74.90
2019-01-26T21:24:26.654Z,74.76
2019-01-26T21:26:54.234Z,74.46
2019-01-26T21:29:20.839Z,74.38
2019-01-26T21:31:47.537Z,74.08
2019-01-26T21:34:14.187Z,73.50
2019-01-26T21:36:40.797Z,73.04
2019-01-26T21:39:07.576Z,73.23
2019-01-26T21:41:35.502Z,73.28
2019-01-26T21:44:01.845Z,73.11
2019-01-26T21:46:28.194Z,73.29
2019-01-26T21:48:54.502Z,73.81
2019-01-26T21:51:20.835Z,73.36
2019-01-26T21:53:47.265Z,72.78
2019-01-26T21:56:13.594Z,72.71
2019-01-26T21:58:40.173Z,72.68
2019-01-26T22:01:06.885Z,72.17
2019-01-26T22:03:33.478Z,71.52
2019-01-26T22:06:00.092Z,71.22
2019-01-26T22:08:26.746Z,71.34
2019-01-26T22:10:53.416Z,70.81
2019-01-26T22:13:19.693Z,70.79
2019-01-26T22:15:47.490Z,70.55
2019-01-26T22:18:14.026Z,69.74
2019-01-26T22:20:41.620Z,69.60
2019-01-26T22:23:08.181Z,69.64
2019-01-26T22:25:34.738Z,69.19
2019-01-26T22:28:01.649Z,69.61
2019-01-26T22:30:30.695Z,69.27
2019-01-26T22:32:57.375Z,68.79
2019-01-26T22:35:23.969Z,68.59
2019-01-26T22:37:51.645Z,68.06
2019-01-26T22:40:30.569Z,67.45
2019-01-26T22:42:57.171Z,67.09
2019-01-26T22:45:24.603Z,67.51
2019-01-26T22:47:51.014Z,67.64
2019-01-26T22:50:25.971Z,67.57
2019-01-26T22:52:52.591Z,66.87
2019-01-26T22:55:20.211Z,67.46
2019-01-26T22:57:47.455Z,67.78
2019-01-26T23:00:47.139Z,68.33
2019-01-26T23:03:15.968Z,67.43
2019-01-26T23:06:39.536Z,67.15
2019-01-26T23:09:22.165Z,66.56
2019-01-26T23:12:17.745Z,66.89
2019-01-26T23:15:39.660Z,66.26
2019-01-26T23:18:42.025Z,66.14
2019-01-26T23:21:41.352Z,66.66
2019-01-26T23:24:46.195Z,66.29
2019-01-26T23:27:35.225Z,66.08
2019-01-26T23:30:19.515Z,65.88
2019-01-26T23:32:46.140Z,65.28
2019-01-26T23:35:12.472Z,64.98
2019-01-26T23:37:38.797Z,65.15
2019-01-26T23:40:08.217Z,65.04
2019-01-26T23:42:34.813Z,64.97
2019-01-26T23:45:01.390Z,64.86
2019-01-26T23:47:27.976Z,65.00
2019-01-26T23:49:54.562Z,65.39
2019-01-26T23:52:20.874Z,65.77
2019-01-26T23:54:49.092Z,65.52
2019-01-26T23:57:15.405Z,64.98
2019-01-26T23:59:41.756Z,65.35
